Time;durP1;ratioP1;P1;durP2;ratioP2;P2;SDS_P1;SDS_P2;PMS_P1;PMS_P2;Temp;Humidity;BMP_temperature;BMP_pressure;BME280_temperature;BME280_humidity;BME280_pressure;Samples;Min_cycle;Max_cycle;Signal;HPM_P1;HPM_P2
2023/01/29 00:01:06;;;;;;;7.57;3.13;;;4.20;81.30;;;;;;5029060;28;20342;-67
2023/01/29 00:03:32;;;;;;;10.40;4.82;;;4.20;81.40;;;;;;5029448;28;20026;-67
2023/01/29 00:05:58;;;;;;;7.60;3.47;;;4.10;81.20;;;;;;5023999;28;20038;-67
2023/01/29 00:08:24;;;;;;;8.52;3.55;;;4.10;81.40;;;;;;5026677;28;20029;-67
2023/01/29 00:10:50;;;;;;;8.32;4.40;;;4.10;81.40;;;;;;5027595;28;20044;-67
2023/01/29 00:13:15;;;;;;;12.00;5.05;;;4.10;81.30;;;;;;5026571;28;20021;-67
2023/01/29 00:15:41;;;;;;;7.38;3.58;;;4.10;81.30;;;;;;5025793;28;20021;-67
2023/01/29 00:18:06;;;;;;;7.20;3.55;;;4.10;81.30;;;;;;5023548;28;20032;-65
2023/01/29 00:20:33;;;;;;;6.13;2.95;;;4.10;81.40;;;;;;5023856;28;20044;-66
2023/01/29 00:22:58;;;;;;;7.15;3.35;;;4.10;81.40;;;;;;5022624;28;20446;-66
2023/01/29 00:25:24;;;;;;;9.20;3.92;;;4.10;81.30;;;;;;5022733;28;20034;-66
2023/01/29 00:27:50;;;;;;;7.30;3.90;;;4.00;81.20;;;;;;5025293;28;20025;-66
2023/01/29 00:30:18;;;;;;;7.18;3.47;;;4.00;81.40;;;;;;5019656;28;20030;-66
2023/01/29 00:32:44;;;;;;;9.20;3.83;;;4.10;81.50;;;;;;5021132;28;20034;-67
2023/01/29 00:35:10;;;;;;;8.63;3.78;;;4.10;81.50;;;;;;5023092;28;20033;-67
2023/01/29 00:37:36;;;;;;;8.40;3.50;;;4.00;81.30;;;;;;5021488;28;20029;-67
2023/01/29 00:40:03;;;;;;;7.53;3.08;;;4.00;81.40;;;;;;5018576;28;20030;-67
2023/01/29 00:45:13;;;;;;;4.97;2.50;;;4.10;81.40;;;;;;5027922;28;20040;-67
2023/01/29 00:47:39;;;;;;;8.20;3.67;;;4.10;81.40;;;;;;5028871;28;20025;-67
2023/01/29 00:50:09;;;;;;;7.88;3.88;;;4.00;81.30;;;;;;5027547;28;20033;-67
2023/01/29 00:52:39;;;;;;;8.52;4.30;;;4.00;81.30;;;;;;5021549;28;20033;-67
2023/01/29 00:55:05;;;;;;;7.93;3.53;;;3.90;81.40;;;;;;5018103;28;20028;-67
2023/01/29 00:57:34;;;;;;;7.32;3.40;;;3.90;81.50;;;;;;5020125;28;20030;-67
2023/01/29 01:00:00;;;;;;;5.78;2.72;;;3.90;81.50;;;;;;5021227;28;20025;-67
2023/01/29 01:05:16;;;;;;;5.65;2.80;;;4.00;81.60;;;;;;5028536;28;20037;-66
2023/01/29 01:07:42;;;;;;;4.68;2.67;;;4.00;81.60;;;;;;5037762;28;20021;-66
2023/01/29 01:10:22;;;;;;;5.25;2.63;;;4.00;81.50;;;;;;5035357;28;20060;-67
2023/01/29 01:13:08;;;;;;;3.28;2.03;;;4.00;81.70;;;;;;5031519;28;20053;-67
2023/01/29 01:15:38;;;;;;;2.90;1.95;;;4.10;81.70;;;;;;5026107;28;20041;-66
2023/01/29 01:18:04;;;;;;;7.38;3.03;;;4.10;81.70;;;;;;5044993;28;20031;-67
2023/01/29 01:20:32;;;;;;;9.43;3.70;;;4.10;81.60;;;;;;5034699;28;20034;-67
2023/01/29 01:22:58;;;;;;;4.55;2.33;;;4.10;81.50;;;;;;5031652;28;20156;-65
2023/01/29 01:25:25;;;;;;;6.85;3.45;;;4.00;81.50;;;;;;5031702;28;20104;-65
2023/01/29 01:27:52;;;;;;;9.77;4.45;;;4.00;81.60;;;;;;5031543;28;20026;-66
2023/01/29 01:30:18;;;;;;;9.68;4.20;;;3.90;81.60;;;;;;5031548;28;20052;-66
2023/01/29 01:32:44;;;;;;;7.75;3.58;;;3.90;81.70;;;;;;5030528;28;20486;-65
2023/01/29 01:35:10;;;;;;;6.57;3.08;;;3.90;81.70;;;;;;5030005;28;20120;-65
2023/01/29 01:37:36;;;;;;;11.13;5.32;;;3.90;81.70;;;;;;5029783;28;20163;-65
2023/01/29 01:40:11;;;;;;;10.90;4.80;;;3.80;81.40;;;;;;5030237;28;20097;-66
2023/01/29 01:42:40;;;;;;;9.70;4.47;;;3.80;81.50;;;;;;5031763;28;20018;-65
2023/01/29 01:45:16;;;;;;;7.70;3.88;;;3.80;81.60;;;;;;5031523;28;20105;-67
2023/01/29 01:48:11;;;;;;;8.05;3.95;;;3.70;81.60;;;;;;5033265;28;20121;-66
2023/01/29 01:50:57;;;;;;;9.00;4.18;;;3.80;81.70;;;;;;5030149;28;20113;-65
2023/01/29 01:53:37;;;;;;;6.55;2.70;;;3.80;81.60;;;;;;5032426;28;20044;-66
2023/01/29 01:56:08;;;;;;;7.10;3.70;;;3.80;81.70;;;;;;5029565;28;20486;-66
2023/01/29 01:58:38;;;;;;;7.53;2.92;;;3.80;81.70;;;;;;5032877;28;20026;-67
2023/01/29 02:01:06;;;;;;;6.68;2.90;;;3.70;81.60;;;;;;5031344;28;20376;-66
2023/01/29 02:09:34;;;;;;;9.23;3.75;;;3.80;81.90;;;;;;5024462;28;20037;-66
2023/01/29 02:12:07;;;;;;;3.92;1.95;;;3.80;81.90;;;;;;5023900;28;21738;-66
2023/01/29 02:14:37;;;;;;;;;;;3.80;81.80;;;;;;5023561;28;20117;-66
2023/01/29 02:17:03;;;;;;;6.53;3.28;;;3.80;81.80;;;;;;5022248;28;19920;-66
2023/01/29 02:19:49;;;;;;;6.03;3.05;;;3.80;81.90;;;;;;5026051;28;20048;-66
2023/01/29 02:22:47;;;;;;;9.75;4.82;;;3.80;81.90;;;;;;5023116;28;20064;-66
2023/01/29 02:25:29;;;;;;;12.10;4.97;;;3.70;81.70;;;;;;5025854;28;20037;-67
2023/01/29 02:28:49;;;;;;;13.23;5.85;;;3.60;81.80;;;;;;5025451;28;20025;-67
2023/01/29 02:31:42;;;;;;;12.23;5.78;;;3.40;81.80;;;;;;5048902;28;20033;-66
2023/01/29 02:37:26;;;;;;;14.43;5.38;;;3.40;81.90;;;;;;5029926;28;20036;-67
2023/01/29 02:40:04;;;;;;;13.23;5.93;;;3.40;82.00;;;;;;5030547;28;20033;-66
2023/01/29 02:42:40;;;;;;;13.50;5.25;;;3.40;82.20;;;;;;5027484;28;20129;-67
2023/01/29 02:45:17;;;;;;;13.25;5.88;;;3.40;82.20;;;;;;5029903;28;20017;-66
2023/01/29 02:47:59;;;;;;;9.65;4.13;;;3.40;82.20;;;;;;5031513;28;20120;-66
2023/01/29 02:50:43;;;;;;;14.20;6.05;;;3.40;82.20;;;;;;5030991;28;20057;-66
2023/01/29 02:53:20;;;;;;;15.07;6.65;;;3.40;82.20;;;;;;5032038;28;20036;-66
2023/01/29 02:56:02;;;;;;;9.95;4.93;;;3.40;82.20;;;;;;5027187;28;20026;-66
2023/01/29 02:58:35;;;;;;;9.40;4.57;;;3.40;82.20;;;;;;5034701;28;20479;-67
2023/01/29 03:01:21;;;;;;;8.63;4.18;;;3.40;82.20;;;;;;5033654;28;20036;-67
2023/01/29 03:03:54;;;;;;;7.68;3.45;;;3.50;82.30;;;;;;5029948;28;20112;-67
2023/01/29 03:06:27;;;;;;;8.35;3.80;;;3.50;82.20;;;;;;5029707;28;20395;-66
2023/01/29 03:08:58;;;;;;;6.38;2.95;;;3.50;82.20;;;;;;5028210;28;20049;-66
2023/01/29 03:11:33;;;;;;;6.25;3.03;;;3.60;82.30;;;;;;5030165;28;20032;-66
2023/01/29 03:14:04;;;;;;;8.02;3.95;;;3.60;82.30;;;;;;5030063;28;20018;-66
2023/01/29 03:16:41;;;;;;;8.02;3.90;;;3.60;82.20;;;;;;5028726;28;20030;-66
2023/01/29 03:19:30;;;;;;;10.02;4.75;;;3.60;82.30;;;;;;5029577;28;20033;-66
2023/01/29 03:21:58;;;;;;;11.55;4.35;;;3.60;82.20;;;;;;5026979;28;20038;-66
2023/01/29 03:32:58;;;;;;;8.45;3.65;;;3.60;82.10;;;;;;5029425;28;20094;-65
2023/01/29 03:35:36;;;;;;;8.57;3.95;;;3.60;82.00;;;;;;5029602;28;20025;-66
2023/01/29 03:38:04;;;;;;;8.40;3.05;;;3.60;82.10;;;;;;5029747;28;20109;-65
2023/01/29 03:40:36;;;;;;;10.40;4.88;;;3.60;82.10;;;;;;5025199;28;20029;-66
2023/01/29 03:43:10;;;;;;;;;;;3.50;81.90;;;;;;5030338;28;20511;-65
2023/01/29 03:45:55;;;;;;;14.35;6.50;;;3.50;81.90;;;;;;5029594;28;20356;-66
2023/01/29 03:48:35;;;;;;;15.52;7.03;;;3.40;82.10;;;;;;5029803;28;20101;-66
2023/01/29 03:51:14;;;;;;;14.43;6.50;;;3.30;82.10;;;;;;5028245;28;20022;-66
2023/01/29 03:53:52;;;;;;;14.02;6.45;;;3.30;82.20;;;;;;5027890;28;20041;-66
2023/01/29 03:56:59;;;;;;;11.07;5.13;;;3.20;82.20;;;;;;5023064;28;20025;-66
2023/01/29 03:59:38;;;;;;;11.18;4.57;;;3.30;82.40;;;;;;5029022;28;20080;-66
2023/01/29 04:02:12;;;;;;;10.32;4.43;;;3.30;82.40;;;;;;5028790;28;20025;-66
2023/01/29 04:04:42;;;;;;;8.77;3.80;;;3.30;82.20;;;;;;5026622;28;20025;-66
2023/01/29 04:07:17;;;;;;;8.48;3.88;;;3.40;82.30;;;;;;5028248;28;20052;-66
2023/01/29 04:09:53;;;;;;;8.32;4.00;;;3.40;82.30;;;;;;5028357;28;20072;-67
2023/01/29 04:12:24;;;;;;;6.90;3.50;;;3.50;82.30;;;;;;5030019;28;20080;-66
2023/01/29 04:14:53;;;;;;;10.02;4.45;;;3.40;82.30;;;;;;5028675;28;20167;-66
2023/01/29 04:17:23;;;;;;;8.80;4.13;;;3.50;82.30;;;;;;5029452;28;20049;-66
2023/01/29 04:19:49;;;;;;;9.27;4.72;;;3.50;82.30;;;;;;5029099;28;20018;-65
2023/01/29 04:22:34;;;;;;;11.30;5.15;;;3.50;82.20;;;;;;5028822;28;20039;-66
2023/01/29 04:25:07;;;;;;;11.82;5.30;;;3.50;82.30;;;;;;5028894;28;20018;-67
2023/01/29 04:27:49;;;;;;;14.93;6.25;;;3.40;82.30;;;;;;5029690;28;20071;-65
2023/01/29 04:30:28;;;;;;;15.05;6.00;;;3.30;82.20;;;;;;5029011;28;20044;-66
2023/01/29 04:33:07;;;;;;;13.82;6.25;;;3.30;82.40;;;;;;5029255;28;20409;-65
2023/01/29 04:35:58;;;;;;;13.10;5.50;;;3.30;82.40;;;;;;5028613;28;20029;-65
2023/01/29 04:38:41;;;;;;;20.13;8.85;;;3.30;82.50;;;;;;5029689;28;20438;-67
2023/01/29 04:41:39;;;;;;;14.90;6.43;;;3.20;82.40;;;;;;5017526;28;20029;-66
2023/01/29 04:44:18;;;;;;;16.77;7.55;;;3.20;82.60;;;;;;5032748;28;20517;-66
2023/01/29 04:46:50;;;;;;;14.43;5.40;;;3.20;82.60;;;;;;5033296;28;20022;-64
2023/01/29 04:49:40;;;;;;;10.60;5.07;;;3.20;82.60;;;;;;5018943;28;20104;-66
2023/01/29 04:52:15;;;;;;;13.00;6.05;;;3.20;82.60;;;;;;5031860;28;20097;-65
2023/01/29 04:55:05;;;;;;;21.10;7.70;;;3.20;82.60;;;;;;5032660;28;20101;-64
2023/01/29 04:57:46;;;;;;;12.70;5.47;;;3.30;82.60;;;;;;5026751;28;20622;-64
2023/01/29 05:00:29;;;;;;;10.73;5.10;;;3.20;82.60;;;;;;5032426;28;20449;-65
2023/01/29 05:02:56;;;;;;;11.10;5.60;;;3.30;82.70;;;;;;5032637;28;20033;-65
2023/01/29 05:05:21;;;;;;;7.93;4.07;;;3.30;82.60;;;;;;5032591;28;20040;-65
2023/01/29 05:07:47;;;;;;;10.70;4.50;;;3.30;82.60;;;;;;5032591;28;20018;-66
2023/01/29 05:10:17;;;;;;;8.00;3.47;;;3.30;82.60;;;;;;5032284;28;20519;-66
2023/01/29 05:12:47;;;;;;;9.88;4.10;;;3.40;82.70;;;;;;5026723;28;20029;-64
2023/01/29 05:15:19;;;;;;;10.18;4.43;;;3.40;82.70;;;;;;5032960;28;20116;-64
2023/01/29 05:17:45;;;;;;;7.68;3.97;;;3.40;83.30;;;;;;5031478;28;20033;-64
2023/01/29 05:20:11;;;;;;;10.27;4.63;;;3.40;82.70;;;;;;5032345;28;20079;-65
2023/01/29 05:22:40;;;;;;;12.95;4.90;;;3.40;82.70;;;;;;5032188;28;20033;-65
2023/01/29 05:25:18;;;;;;;8.80;3.42;;;3.40;82.70;;;;;;5030437;28;20017;-66
2023/01/29 05:30:28;;;;;;;7.72;3.50;;;3.50;82.70;;;;;;5028637;28;20072;-66
2023/01/29 05:32:54;;;;;;;10.52;4.35;;;3.50;82.70;;;;;;5031915;28;20057;-67
2023/01/29 05:35:19;;;;;;;8.75;3.60;;;3.50;82.70;;;;;;5032002;28;20026;-66
2023/01/29 05:37:45;;;;;;;5.32;3.08;;;3.60;82.70;;;;;;5030841;28;20048;-66
2023/01/29 05:40:11;;;;;;;7.03;2.95;;;3.50;82.70;;;;;;5030429;28;20025;-66
2023/01/29 05:42:36;;;;;;;11.85;5.05;;;3.50;82.70;;;;;;5031033;28;20033;-66
2023/01/29 05:45:02;;;;;;;9.45;4.38;;;3.50;82.80;;;;;;5032742;28;20017;-66
2023/01/29 05:47:27;;;;;;;9.52;4.50;;;3.50;82.80;;;;;;5032105;28;20029;-66
2023/01/29 05:49:53;;;;;;;6.70;3.58;;;3.50;82.90;;;;;;5031440;28;20060;-67
2023/01/29 05:52:18;;;;;;;11.52;4.85;;;3.60;82.90;;;;;;5031954;28;20037;-66
2023/01/29 05:54:44;;;;;;;10.73;5.10;;;3.60;82.80;;;;;;5030667;28;20033;-63
2023/01/29 05:57:10;;;;;;;4.53;2.83;;;3.60;82.70;;;;;;5031318;28;20037;-66
2023/01/29 05:59:35;;;;;;;5.50;3.05;;;3.60;82.70;;;;;;5031328;28;20029;-65
2023/01/29 06:02:01;;;;;;;7.68;3.55;;;3.70;82.70;;;;;;5031177;28;20126;-66
2023/01/29 06:04:27;;;;;;;6.97;3.63;;;3.70;82.70;;;;;;5031263;28;20030;-66
2023/01/29 06:06:52;;;;;;;11.43;4.35;;;3.70;82.70;;;;;;5030156;28;20117;-66
2023/01/29 06:09:18;;;;;;;7.32;3.35;;;3.70;82.70;;;;;;5028140;28;20029;-66
2023/01/29 06:11:43;;;;;;;11.05;4.28;;;3.70;82.70;;;;;;5031667;28;20017;-66
2023/01/29 06:14:09;;;;;;;11.82;5.45;;;3.60;82.70;;;;;;5030218;28;20068;-66
2023/01/29 06:16:34;;;;;;;16.83;7.72;;;3.60;82.70;;;;;;5031214;28;20026;-65
2023/01/29 06:19:00;;;;;;;14.10;6.32;;;3.60;82.70;;;;;;5030627;28;20040;-65
2023/01/29 06:21:25;;;;;;;17.88;7.40;;;3.60;82.70;;;;;;5031072;28;20545;-66
2023/01/29 06:23:53;;;;;;;13.88;5.80;;;3.50;82.60;;;;;;5030606;28;20468;-66
2023/01/29 06:26:18;;;;;;;18.27;7.65;;;3.60;82.80;;;;;;5030548;28;20095;-65
2023/01/29 06:28:48;;;;;;;14.75;5.97;;;3.50;82.60;;;;;;5030971;28;20022;-65
2023/01/29 06:31:14;;;;;;;15.65;6.47;;;3.60;82.70;;;;;;5030752;28;20032;-66
2023/01/29 06:33:39;;;;;;;9.90;4.78;;;3.50;82.60;;;;;;5030425;28;20100;-66
2023/01/29 06:36:05;;;;;;;17.98;7.93;;;3.60;82.70;;;;;;5031304;28;20430;-66
2023/01/29 06:38:32;;;;;;;11.18;5.95;;;3.60;82.50;;;;;;5026619;28;20104;-67
2023/01/29 06:40:58;;;;;;;17.25;7.35;;;3.50;82.50;;;;;;5023465;28;20018;-66
2023/01/29 06:43:23;;;;;;;17.02;7.90;;;3.40;82.40;;;;;;5039425;28;20495;-66
2023/01/29 06:45:53;;;;;;;22.30;8.57;;;3.40;82.50;;;;;;5030599;28;20034;-65
2023/01/29 06:48:19;;;;;;;18.05;8.30;;;3.40;82.60;;;;;;5029950;28;20040;-65
2023/01/29 06:50:45;;;;;;;20.13;9.43;;;3.40;82.60;;;;;;5033007;28;20029;-66
2023/01/29 06:53:11;;;;;;;18.27;7.35;;;3.40;82.70;;;;;;5036452;28;20025;-65
2023/01/29 06:55:37;;;;;;;14.75;5.70;;;3.40;82.70;;;;;;5033564;28;20507;-66
2023/01/29 06:58:08;;;;;;;10.07;4.63;;;3.40;82.70;;;;;;5026259;28;20029;-66
2023/01/29 07:00:34;;;;;;;13.15;5.15;;;3.50;82.70;;;;;;5030011;28;20488;-67
2023/01/29 07:03:00;;;;;;;12.02;5.18;;;3.50;82.60;;;;;;5029768;28;20033;-66
2023/01/29 07:05:25;;;;;;;17.02;7.75;;;3.50;82.70;;;;;;5024466;28;20032;-65
2023/01/29 07:07:51;;;;;;;15.27;6.97;;;3.50;82.60;;;;;;5030534;28;20033;-65
2023/01/29 07:10:16;;;;;;;19.45;9.05;;;3.40;82.60;;;;;;5030189;28;20026;-67
2023/01/29 07:12:42;;;;;;;12.40;5.88;;;3.40;82.50;;;;;;5030686;28;20091;-66
2023/01/29 07:15:08;;;;;;;18.92;7.10;;;3.40;82.70;;;;;;5029802;28;20052;-64
2023/01/29 07:17:34;;;;;;;14.35;5.90;;;3.50;82.70;;;;;;5025982;28;20037;-65
2023/01/29 07:19:59;;;;;;;24.15;8.95;;;3.50;82.70;;;;;;5030230;28;20092;-66
2023/01/29 07:22:25;;;;;;;18.83;8.32;;;3.50;82.50;;;;;;5030644;28;20041;-67
2023/01/29 07:24:50;;;;;;;17.15;7.57;;;3.50;82.50;;;;;;5029927;28;20025;-65
2023/01/29 07:27:16;;;;;;;20.42;8.88;;;3.40;82.50;;;;;;5030617;28;20373;-65
2023/01/29 07:29:41;;;;;;;18.63;7.72;;;3.50;82.50;;;;;;5029902;28;20014;-66
2023/01/29 07:32:07;;;;;;;17.23;7.15;;;3.40;82.40;;;;;;5029690;28;20362;-65
2023/01/29 07:34:32;;;;;;;16.83;6.97;;;3.40;82.50;;;;;;5026037;28;20510;-65
2023/01/29 07:36:58;;;;;;;13.05;5.05;;;3.50;82.60;;;;;;5025698;28;20069;-66
2023/01/29 07:39:24;;;;;;;11.55;5.43;;;3.50;82.60;;;;;;5029819;28;20026;-66
2023/01/29 07:41:49;;;;;;;11.02;5.05;;;3.50;82.60;;;;;;5030235;28;20033;-65
2023/01/29 07:44:15;;;;;;;10.65;4.70;;;3.60;82.60;;;;;;5029793;28;20032;-66
2023/01/29 07:46:41;;;;;;;16.30;7.55;;;3.60;82.50;;;;;;5029666;28;20029;-66
2023/01/29 07:49:06;;;;;;;16.60;7.43;;;3.60;82.40;;;;;;5029780;28;20499;-66
2023/01/29 07:51:32;;;;;;;18.00;8.32;;;3.50;82.50;;;;;;5027245;28;20104;-66
2023/01/29 07:53:57;;;;;;;13.88;6.60;;;3.50;82.50;;;;;;5029271;28;20110;-65
2023/01/29 07:56:23;;;;;;;18.27;7.07;;;3.60;82.60;;;;;;5029247;28;20029;-65
2023/01/29 07:58:48;;;;;;;16.23;7.15;;;3.60;82.60;;;;;;5029120;28;20033;-67
2023/01/29 08:01:14;;;;;;;14.65;6.28;;;3.50;82.50;;;;;;5028933;28;20033;-66
2023/01/29 08:03:40;;;;;;;18.33;7.72;;;3.60;82.50;;;;;;5029107;28;20068;-65
2023/01/29 08:06:05;;;;;;;21.35;8.60;;;3.60;82.50;;;;;;5029386;28;20025;-65
2023/01/29 08:08:31;;;;;;;21.77;9.55;;;3.50;82.50;;;;;;5029109;28;20543;-66
2023/01/29 08:11:01;;;;;;;16.60;7.93;;;3.50;82.40;;;;;;5027052;28;20021;-67
2023/01/29 08:13:27;;;;;;;16.10;8.23;;;3.50;82.50;;;;;;5026599;28;20052;-66
2023/01/29 08:15:52;;;;;;;17.58;7.80;;;3.50;82.50;;;;;;5028861;28;20455;-65
2023/01/29 08:18:18;;;;;;;15.73;7.35;;;3.50;82.50;;;;;;5030928;28;20116;-66
2023/01/29 08:20:43;;;;;;;15.32;7.07;;;3.50;82.60;;;;;;5033106;28;20021;-66
2023/01/29 08:23:14;;;;;;;15.25;6.07;;;3.60;82.60;;;;;;5033510;28;20037;-66
2023/01/29 08:25:40;;;;;;;20.33;8.25;;;3.60;82.60;;;;;;5033355;28;20021;-65
2023/01/29 08:28:05;;;;;;;16.98;6.68;;;3.70;82.50;;;;;;5033470;28;20064;-66
2023/01/29 08:30:33;;;;;;;16.15;6.88;;;3.60;82.40;;;;;;5030396;28;20053;-67
2023/01/29 08:32:58;;;;;;;17.92;7.13;;;3.70;82.50;;;;;;5033397;28;20075;-66
2023/01/29 08:35:25;;;;;;;17.05;6.55;;;3.70;82.40;;;;;;5033050;28;20025;-65
2023/01/29 08:37:55;;;;;;;14.23;5.88;;;3.70;82.30;;;;;;5033196;28;20025;-66
2023/01/29 08:40:21;;;;;;;21.85;7.88;;;3.80;82.40;;;;;;5032844;28;20780;-66
2023/01/29 08:42:46;;;;;;;18.35;9.25;;;3.80;82.30;;;;;;5032295;28;20519;-65
2023/01/29 08:45:12;;;;;;;17.33;7.57;;;3.80;82.10;;;;;;5031221;28;20025;-65
2023/01/29 08:47:37;;;;;;;19.58;8.48;;;3.70;82.10;;;;;;5032812;28;20018;-65
2023/01/29 08:50:03;;;;;;;14.77;6.53;;;3.80;82.20;;;;;;5033133;28;20029;-66
2023/01/29 08:52:29;;;;;;;22.55;9.88;;;3.90;82.20;;;;;;5023602;28;20037;-65
2023/01/29 08:54:54;;;;;;;15.98;6.82;;;3.90;82.60;;;;;;5032244;28;20057;-66
2023/01/29 08:57:20;;;;;;;13.90;6.65;;;3.90;81.80;;;;;;5032162;28;20075;-66
2023/01/29 08:59:45;;;;;;;14.85;6.70;;;4.00;81.90;;;;;;5033221;28;20025;-67
2023/01/29 09:02:11;;;;;;;14.40;6.70;;;4.00;81.90;;;;;;5032878;28;20029;-66
2023/01/29 09:04:37;;;;;;;13.98;6.38;;;3.90;81.70;;;;;;5029405;28;20026;-65
2023/01/29 09:07:02;;;;;;;18.65;7.10;;;4.00;81.80;;;;;;5032442;28;20028;-66
2023/01/29 09:09:28;;;;;;;15.48;6.53;;;4.10;81.80;;;;;;5032545;28;20104;-66
2023/01/29 09:11:53;;;;;;;17.48;8.30;;;4.10;81.80;;;;;;5024190;28;20049;-65
2023/01/29 09:14:19;;;;;;;13.18;5.57;;;4.20;81.70;;;;;;5031814;28;20116;-66
2023/01/29 09:16:44;;;;;;;9.63;4.60;;;4.20;81.60;;;;;;5031953;28;20436;-66
2023/01/29 09:19:10;;;;;;;13.82;6.32;;;4.30;81.60;;;;;;5029297;28;20096;-66
2023/01/29 09:21:36;;;;;;;15.80;6.35;;;4.30;81.50;;;;;;5029131;28;20681;-66
2023/01/29 09:24:01;;;;;;;14.93;6.28;;;4.30;81.50;;;;;;5029507;28;20021;-65
2023/01/29 09:26:27;;;;;;;12.07;5.68;;;4.30;81.30;;;;;;5025564;28;20025;-67
2023/01/29 09:28:52;;;;;;;12.60;6.60;;;4.30;81.30;;;;;;5023090;28;20100;-65
2023/01/29 09:31:18;;;;;;;12.10;4.60;;;4.30;81.10;;;;;;5023890;28;20456;-66
2023/01/29 09:33:43;;;;;;;13.55;6.18;;;4.30;81.20;;;;;;5021528;28;20017;-66
2023/01/29 09:36:09;;;;;;;13.30;6.05;;;4.40;81.20;;;;;;5019494;28;20040;-67
2023/01/29 09:38:34;;;;;;;15.90;5.93;;;4.40;81.10;;;;;;5020286;28;20087;-65
2023/01/29 09:41:31;;;;;;;10.38;4.38;;;4.40;81.20;;;;;;5024912;28;20022;-67
2023/01/29 09:44:12;;;;;;;12.80;6.10;;;4.40;81.10;;;;;;5026569;28;20105;-66
2023/01/29 09:46:42;;;;;;;8.90;4.60;;;4.40;80.90;;;;;;5021762;28;20090;-66
2023/01/29 09:49:25;;;;;;;14.63;7.13;;;4.40;81.00;;;;;;5024888;28;20052;-67
2023/01/29 09:52:08;;;;;;;12.38;5.22;;;4.50;80.90;;;;;;5026182;28;20096;-66
2023/01/29 09:54:49;;;;;;;11.45;5.32;;;4.40;80.60;;;;;;5026699;28;20435;-66
2023/01/29 09:57:23;;;;;;;12.65;5.95;;;4.40;80.70;;;;;;5026988;28;20052;-66
2023/01/29 09:59:48;;;;;;;12.02;5.10;;;4.40;80.70;;;;;;5023818;28;20395;-66
2023/01/29 10:02:33;;;;;;;9.23;4.60;;;4.50;80.80;;;;;;5024362;28;20036;-67
2023/01/29 10:05:24;;;;;;;16.58;7.05;;;4.50;80.80;;;;;;5027283;28;20022;-67
2023/01/29 10:08:11;;;;;;;16.58;7.32;;;4.50;80.70;;;;;;5018263;28;20046;-67
2023/01/29 10:10:56;;;;;;;10.93;5.22;;;4.50;80.70;;;;;;5027988;28;20508;-66
2023/01/29 10:13:35;;;;;;;12.30;5.03;;;4.50;80.50;;;;;;5022470;28;20045;-66
2023/01/29 10:16:10;;;;;;;14.82;5.38;;;4.50;80.50;;;;;;5026571;28;20096;-67
2023/01/29 10:18:57;;;;;;;15.13;5.60;;;4.50;80.40;;;;;;5029550;28;20026;-66
2023/01/29 10:21:58;;;;;;;15.95;5.93;;;4.60;80.40;;;;;;5027570;28;20102;-66
2023/01/29 10:24:51;;;;;;;10.23;4.93;;;4.60;80.40;;;;;;5025651;28;20033;-66
2023/01/29 10:27:17;;;;;;;10.40;5.20;;;4.60;80.30;;;;;;5027192;28;20025;-66
2023/01/29 10:29:45;;;;;;;19.70;7.97;;;4.70;80.20;;;;;;5024741;28;20133;-67
2023/01/29 10:32:24;;;;;;;10.90;5.53;;;4.70;80.00;;;;;;5023591;28;20018;-66
2023/01/29 10:35:16;;;;;;;9.93;5.53;;;4.70;80.10;;;;;;5024698;28;20490;-66
2023/01/29 10:37:43;;;;;;;10.55;5.05;;;4.70;80.10;;;;;;5027035;28;20045;-67
2023/01/29 10:40:26;;;;;;;14.02;6.25;;;4.70;80.00;;;;;;5026613;28;20040;-65
2023/01/29 10:43:21;;;;;;;11.23;5.15;;;4.70;80.00;;;;;;5028362;28;20025;-66
2023/01/29 10:46:02;;;;;;;8.32;4.25;;;4.80;80.00;;;;;;5028510;28;20025;-67
2023/01/29 10:48:41;;;;;;;13.23;5.45;;;4.80;79.90;;;;;;5030021;28;20038;-66
2023/01/29 10:51:22;;;;;;;13.10;6.22;;;4.80;79.40;;;;;;5028844;28;20732;-65
2023/01/29 10:54:07;;;;;;;15.77;6.97;;;4.70;79.30;;;;;;5027565;28;20022;-66
2023/01/29 10:56:38;;;;;;;12.07;5.80;;;4.70;79.30;;;;;;5029463;28;20488;-67
2023/01/29 10:59:29;;;;;;;15.10;6.95;;;4.70;79.40;;;;;;5029254;28;20049;-66
2023/01/29 11:01:59;;;;;;;10.57;5.03;;;4.70;79.20;;;;;;5028600;28;20037;-65
2023/01/29 11:04:27;;;;;;;13.68;5.72;;;4.80;79.30;;;;;;5027781;28;20483;-66
2023/01/29 11:06:53;;;;;;;13.60;6.28;;;4.70;79.10;;;;;;5030398;28;20049;-66
2023/01/29 11:09:34;;;;;;;9.52;4.90;;;4.70;79.10;;;;;;5029343;28;20060;-66
2023/01/29 11:12:13;;;;;;;9.35;5.82;;;4.80;79.20;;;;;;5025506;28;20053;-66
2023/01/29 11:14:54;;;;;;;14.27;5.80;;;4.80;79.30;;;;;;5025010;28;20400;-66
2023/01/29 11:17:22;;;;;;;11.60;5.88;;;4.80;79.20;;;;;;5024371;28;20038;-65
2023/01/29 11:19:50;;;;;;;8.80;4.95;;;4.80;79.00;;;;;;5025714;28;20028;-66
2023/01/29 11:22:24;;;;;;;8.98;4.78;;;4.80;79.10;;;;;;5030709;28;20055;-64
2023/01/29 11:25:11;;;;;;;8.13;3.70;;;4.90;79.10;;;;;;5025891;28;20025;-65
2023/01/29 11:27:43;;;;;;;11.00;5.38;;;4.90;79.10;;;;;;5023873;28;20029;-66
2023/01/29 11:30:20;;;;;;;;;;;4.90;79.10;;;;;;5027777;28;20100;-65
2023/01/29 11:32:51;;;;;;;11.77;5.50;;;5.00;79.00;;;;;;5024852;28;19940;-66
2023/01/29 11:35:16;;;;;;;15.02;6.97;;;5.00;78.70;;;;;;5029594;28;20396;-66
2023/01/29 11:37:43;;;;;;;10.70;5.47;;;5.00;78.80;;;;;;5026036;28;20156;-66
2023/01/29 11:40:18;;;;;;;9.07;4.72;;;5.00;78.60;;;;;;5025672;28;20049;-68
2023/01/29 11:42:48;;;;;;;9.50;4.32;;;5.10;78.80;;;;;;5027478;28;20021;-66
2023/01/29 11:45:37;;;;;;;7.82;3.97;;;5.20;78.90;;;;;;5022399;28;20032;-66
2023/01/29 11:48:03;;;;;;;11.43;6.00;;;5.30;78.70;;;;;;5023932;28;20159;-65
2023/01/29 11:50:31;;;;;;;8.32;4.60;;;5.30;78.40;;;;;;5025027;28;20037;-66
2023/01/29 11:52:58;;;;;;;11.88;5.68;;;5.30;78.50;;;;;;5024887;28;20029;-67
2023/01/29 11:55:46;;;;;;;11.00;5.43;;;5.30;78.60;;;;;;5022956;28;20022;-67
2023/01/29 11:58:24;;;;;;;13.07;6.15;;;5.30;78.50;;;;;;5025723;28;20488;-70
2023/01/29 12:00:52;;;;;;;11.15;5.63;;;5.30;78.40;;;;;;5024042;28;20026;-66
2023/01/29 12:03:23;;;;;;;8.45;4.20;;;5.30;78.40;;;;;;5028002;28;20096;-66
2023/01/29 12:06:18;;;;;;;7.57;4.07;;;5.30;78.40;;;;;;5025573;28;20025;-64
2023/01/29 12:08:56;;;;;;;12.63;5.53;;;5.30;78.50;;;;;;5024538;28;20030;-66
2023/01/29 12:11:29;;;;;;;11.98;6.25;;;5.30;78.50;;;;;;5030829;28;20496;-66
2023/01/29 12:13:57;;;;;;;9.70;5.13;;;5.30;78.60;;;;;;5022769;28;20022;-65
2023/01/29 12:16:26;;;;;;;7.57;3.80;;;5.40;78.60;;;;;;5025729;28;20122;-67
2023/01/29 12:19:13;;;;;;;9.13;4.47;;;5.40;78.60;;;;;;5025111;28;20112;-65
2023/01/29 12:22:17;;;;;;;9.70;5.05;;;5.40;78.60;;;;;;5041999;28;20455;-66
2023/01/29 12:25:39;;;;;;;11.02;5.18;;;5.40;78.70;;;;;;5034580;28;20042;-68
2023/01/29 12:28:33;;;;;;;9.93;4.63;;;5.30;78.70;;;;;;5005899;28;20050;-66
2023/01/29 12:31:18;;;;;;;9.52;4.05;;;5.40;78.90;;;;;;5004595;28;20110;-66
2023/01/29 12:33:49;;;;;;;9.88;4.18;;;5.40;78.90;;;;;;5025626;28;20496;-66
2023/01/29 12:36:28;;;;;;;8.75;4.68;;;5.40;78.90;;;;;;5026191;28;20029;-67
2023/01/29 12:38:54;;;;;;;10.32;4.30;;;5.40;79.00;;;;;;5030545;28;20028;-65
2023/01/29 12:41:23;;;;;;;11.75;5.82;;;5.40;78.90;;;;;;5025616;28;21379;-65
2023/01/29 12:43:53;;;;;;;10.82;4.88;;;5.40;78.90;;;;;;5029399;28;20881;-65
2023/01/29 12:46:33;;;;;;;7.78;3.40;;;5.40;79.00;;;;;;5025519;28;20033;-65
2023/01/29 12:49:03;;;;;;;11.63;6.35;;;5.40;79.10;;;;;;5025746;28;20069;-65
2023/01/29 12:51:35;;;;;;;15.70;6.90;;;5.40;78.90;;;;;;5024891;28;20032;-64
2023/01/29 12:54:05;;;;;;;13.48;6.38;;;5.40;79.00;;;;;;5022561;28;20026;-67
2023/01/29 12:56:42;;;;;;;11.40;5.13;;;5.40;79.60;;;;;;5027546;28;20026;-67
2023/01/29 12:59:13;;;;;;;8.88;4.97;;;5.40;79.10;;;;;;5026454;28;20356;-66
2023/01/29 13:01:51;;;;;;;10.82;5.40;;;5.40;79.20;;;;;;5028760;28;20053;-65
2023/01/29 13:04:44;;;;;;;10.43;5.32;;;5.40;79.40;;;;;;5030598;28;20013;-67
2023/01/29 13:07:18;;;;;;;16.67;7.57;;;5.40;79.30;;;;;;5032545;28;20053;-67
2023/01/29 13:09:50;;;;;;;16.42;7.15;;;5.40;79.20;;;;;;5027529;28;20037;-65
2023/01/29 13:12:21;;;;;;;14.18;6.30;;;5.30;79.10;;;;;;5023998;28;20034;-65
2023/01/29 13:14:56;;;;;;;9.52;4.70;;;5.30;79.20;;;;;;5032455;28;20032;-65
2023/01/29 13:17:43;;;;;;;12.50;5.10;;;5.30;79.40;;;;;;5031735;28;20065;-65
2023/01/29 13:20:21;;;;;;;9.77;4.68;;;5.40;79.40;;;;;;5030339;28;20388;-65
2023/01/29 13:22:49;;;;;;;10.90;5.50;;;5.40;79.50;;;;;;5032263;28;20379;-65
2023/01/29 13:25:16;;;;;;;11.57;5.82;;;5.30;79.30;;;;;;5032188;28;20028;-66
2023/01/29 13:27:44;;;;;;;17.85;8.00;;;5.40;79.60;;;;;;5029222;28;20025;-67
2023/01/29 13:30:24;;;;;;;12.20;5.22;;;5.40;79.50;;;;;;5030111;28;20028;-66
2023/01/29 13:32:53;;;;;;;17.13;7.95;;;5.30;79.40;;;;;;5026551;28;20029;-65
2023/01/29 13:35:21;;;;;;;23.83;9.25;;;5.30;79.50;;;;;;5031154;28;20032;-65
2023/01/29 13:37:50;;;;;;;22.13;9.80;;;5.40;79.60;;;;;;5033677;28;20036;-65
2023/01/29 13:40:35;;;;;;;14.38;7.05;;;5.40;79.70;;;;;;5032043;28;20029;-65
2023/01/29 13:43:01;;;;;;;14.20;6.97;;;5.40;79.80;;;;;;5029169;28;20033;-66